sensor_id;sensor_type;location;lat;lon;timestamp;P1;durP1;ratioP1;P2;durP2;ratioP2
28862;SDS011;15994;51.796;13.006;2023-10-09T00:01:42;13.98;;;8.05;;
28862;SDS011;15994;51.796;13.006;2023-10-09T00:04:11;10.57;;;7.35;;
28862;SDS011;15994;51.796;13.006;2023-10-09T00:06:39;10.77;;;6.55;;
28862;SDS011;15994;51.796;13.006;2023-10-09T00:09:08;10.43;;;6.65;;
28862;SDS011;15994;51.796;13.006;2023-10-09T00:11:42;11.73;;;6.60;;
28862;SDS011;15994;51.796;13.006;2023-10-09T00:14:10;10.63;;;6.82;;
28862;SDS011;15994;51.796;13.006;2023-10-09T00:16:37;12.80;;;6.63;;
28862;SDS011;15994;51.796;13.006;2023-10-09T00:19:12;10.80;;;7.10;;
28862;SDS011;15994;51.796;13.006;2023-10-09T00:21:45;13.93;;;7.50;;
28862;SDS011;15994;51.796;13.006;2023-10-09T00:24:13;11.15;;;6.78;;
28862;SDS011;15994;51.796;13.006;2023-10-09T00:26:45;11.77;;;7.50;;
28862;SDS011;15994;51.796;13.006;2023-10-09T00:29:13;11.65;;;6.93;;
28862;SDS011;15994;51.796;13.006;2023-10-09T00:31:46;13.00;;;7.43;;
28862;SDS011;15994;51.796;13.006;2023-10-09T00:34:17;11.35;;;7.65;;
28862;SDS011;15994;51.796;13.006;2023-10-09T00:36:45;13.98;;;7.38;;
28862;SDS011;15994;51.796;13.006;2023-10-09T00:39:16;9.95;;;7.43;;
28862;SDS011;15994;51.796;13.006;2023-10-09T00:41:58;11.70;;;7.43;;
28862;SDS011;15994;51.796;13.006;2023-10-09T00:44:26;12.15;;;7.55;;
28862;SDS011;15994;51.796;13.006;2023-10-09T00:47:03;10.18;;;7.13;;
28862;SDS011;15994;51.796;13.006;2023-10-09T00:49:36;12.85;;;7.65;;
28862;SDS011;15994;51.796;13.006;2023-10-09T00:52:08;11.43;;;7.95;;
28862;SDS011;15994;51.796;13.006;2023-10-09T00:54:48;11.95;;;8.02;;
28862;SDS011;15994;51.796;13.006;2023-10-09T00:57:18;13.25;;;8.25;;
28862;SDS011;15994;51.796;13.006;2023-10-09T00:59:49;12.93;;;8.18;;
28862;SDS011;15994;51.796;13.006;2023-10-09T01:02:24;12.95;;;8.30;;
28862;SDS011;15994;51.796;13.006;2023-10-09T01:05:00;11.23;;;8.32;;
28862;SDS011;15994;51.796;13.006;2023-10-09T01:07:35;11.48;;;8.38;;
28862;SDS011;15994;51.796;13.006;2023-10-09T01:10:05;12.00;;;7.97;;
28862;SDS011;15994;51.796;13.006;2023-10-09T01:12:54;14.60;;;7.85;;
28862;SDS011;15994;51.796;13.006;2023-10-09T01:15:21;12.90;;;8.48;;
28862;SDS011;15994;51.796;13.006;2023-10-09T01:18:08;12.25;;;8.70;;
28862;SDS011;15994;51.796;13.006;2023-10-09T01:20:36;11.00;;;7.85;;
28862;SDS011;15994;51.796;13.006;2023-10-09T01:23:10;11.80;;;8.45;;
28862;SDS011;15994;51.796;13.006;2023-10-09T01:25:37;15.48;;;8.63;;
28862;SDS011;15994;51.796;13.006;2023-10-09T01:28:14;12.95;;;8.40;;
28862;SDS011;15994;51.796;13.006;2023-10-09T01:30:42;11.75;;;8.00;;
28862;SDS011;15994;51.796;13.006;2023-10-09T01:33:10;11.55;;;8.05;;
28862;SDS011;15994;51.796;13.006;2023-10-09T01:35:52;12.48;;;8.57;;
28862;SDS011;15994;51.796;13.006;2023-10-09T01:38:23;14.02;;;8.13;;
28862;SDS011;15994;51.796;13.006;2023-10-09T01:41:05;12.75;;;8.13;;
28862;SDS011;15994;51.796;13.006;2023-10-09T01:43:33;13.70;;;8.68;;
28862;SDS011;15994;51.796;13.006;2023-10-09T01:46:00;11.98;;;8.60;;
28862;SDS011;15994;51.796;13.006;2023-10-09T01:48:30;11.25;;;8.27;;
28862;SDS011;15994;51.796;13.006;2023-10-09T01:51:03;13.45;;;9.38;;
28862;SDS011;15994;51.796;13.006;2023-10-09T01:53:33;12.18;;;9.07;;
28862;SDS011;15994;51.796;13.006;2023-10-09T01:56:09;14.85;;;9.07;;
28862;SDS011;15994;51.796;13.006;2023-10-09T01:58:40;11.13;;;8.50;;
28862;SDS011;15994;51.796;13.006;2023-10-09T02:01:07;12.48;;;8.55;;
28862;SDS011;15994;51.796;13.006;2023-10-09T02:03:34;12.52;;;9.05;;
28862;SDS011;15994;51.796;13.006;2023-10-09T02:06:03;14.70;;;9.30;;
28862;SDS011;15994;51.796;13.006;2023-10-09T02:08:42;14.35;;;8.75;;
28862;SDS011;15994;51.796;13.006;2023-10-09T02:11:14;16.02;;;9.65;;
28862;SDS011;15994;51.796;13.006;2023-10-09T02:13:49;11.32;;;8.48;;
28862;SDS011;15994;51.796;13.006;2023-10-09T02:16:20;12.60;;;9.15;;
28862;SDS011;15994;51.796;13.006;2023-10-09T02:18:54;12.73;;;8.93;;
28862;SDS011;15994;51.796;13.006;2023-10-09T02:21:23;14.15;;;9.00;;
28862;SDS011;15994;51.796;13.006;2023-10-09T02:23:59;14.35;;;9.15;;
28862;SDS011;15994;51.796;13.006;2023-10-09T02:26:30;14.77;;;9.18;;
28862;SDS011;15994;51.796;13.006;2023-10-09T02:29:19;11.50;;;8.60;;
28862;SDS011;15994;51.796;13.006;2023-10-09T02:31:49;11.70;;;8.93;;
28862;SDS011;15994;51.796;13.006;2023-10-09T02:34:18;13.05;;;8.27;;
28862;SDS011;15994;51.796;13.006;2023-10-09T02:36:48;13.20;;;9.02;;
28862;SDS011;15994;51.796;13.006;2023-10-09T02:39:22;13.07;;;8.82;;
28862;SDS011;15994;51.796;13.006;2023-10-09T02:41:54;12.57;;;9.00;;
28862;SDS011;15994;51.796;13.006;2023-10-09T02:44:26;16.87;;;9.13;;
28862;SDS011;15994;51.796;13.006;2023-10-09T02:46:56;11.98;;;8.30;;
28862;SDS011;15994;51.796;13.006;2023-10-09T02:49:24;13.77;;;8.45;;
28862;SDS011;15994;51.796;13.006;2023-10-09T02:51:53;14.68;;;8.82;;
28862;SDS011;15994;51.796;13.006;2023-10-09T02:54:20;12.13;;;8.52;;
28862;SDS011;15994;51.796;13.006;2023-10-09T02:57:00;11.73;;;8.07;;
28862;SDS011;15994;51.796;13.006;2023-10-09T02:59:32;13.68;;;8.52;;
28862;SDS011;15994;51.796;13.006;2023-10-09T03:01:59;15.98;;;9.05;;
28862;SDS011;15994;51.796;13.006;2023-10-09T03:04:26;13.77;;;9.30;;
28862;SDS011;15994;51.796;13.006;2023-10-09T03:06:59;16.08;;;9.60;;
28862;SDS011;15994;51.796;13.006;2023-10-09T03:09:28;13.82;;;8.02;;
28862;SDS011;15994;51.796;13.006;2023-10-09T03:11:57;13.60;;;7.85;;
28862;SDS011;15994;51.796;13.006;2023-10-09T03:14:28;9.50;;;6.60;;
28862;SDS011;15994;51.796;13.006;2023-10-09T03:16:55;11.13;;;6.28;;
28862;SDS011;15994;51.796;13.006;2023-10-09T03:19:26;9.65;;;5.10;;
28862;SDS011;15994;51.796;13.006;2023-10-09T03:21:53;6.95;;;5.32;;
28862;SDS011;15994;51.796;13.006;2023-10-09T03:24:22;7.85;;;4.80;;
28862;SDS011;15994;51.796;13.006;2023-10-09T03:26:49;8.23;;;4.18;;
28862;SDS011;15994;51.796;13.006;2023-10-09T03:29:17;8.48;;;3.78;;
28862;SDS011;15994;51.796;13.006;2023-10-09T03:31:44;5.97;;;3.80;;
28862;SDS011;15994;51.796;13.006;2023-10-09T03:34:11;6.82;;;3.83;;
28862;SDS011;15994;51.796;13.006;2023-10-09T03:36:39;6.30;;;3.00;;
28862;SDS011;15994;51.796;13.006;2023-10-09T03:39:08;6.68;;;3.28;;
28862;SDS011;15994;51.796;13.006;2023-10-09T03:41:50;6.80;;;3.10;;
28862;SDS011;15994;51.796;13.006;2023-10-09T03:44:19;5.95;;;3.03;;
28862;SDS011;15994;51.796;13.006;2023-10-09T03:46:47;5.80;;;2.90;;
28862;SDS011;15994;51.796;13.006;2023-10-09T03:49:16;4.80;;;2.65;;
28862;SDS011;15994;51.796;13.006;2023-10-09T03:51:49;5.63;;;3.20;;
28862;SDS011;15994;51.796;13.006;2023-10-09T03:54:16;7.43;;;3.05;;
28862;SDS011;15994;51.796;13.006;2023-10-09T03:56:45;5.72;;;2.80;;
28862;SDS011;15994;51.796;13.006;2023-10-09T03:59:15;5.25;;;2.90;;
28862;SDS011;15994;51.796;13.006;2023-10-09T04:01:42;4.38;;;2.80;;
28862;SDS011;15994;51.796;13.006;2023-10-09T04:04:10;4.85;;;2.65;;
28862;SDS011;15994;51.796;13.006;2023-10-09T04:06:39;6.15;;;3.00;;
28862;SDS011;15994;51.796;13.006;2023-10-09T04:09:07;6.63;;;2.85;;
28862;SDS011;15994;51.796;13.006;2023-10-09T04:11:53;5.20;;;2.70;;
28862;SDS011;15994;51.796;13.006;2023-10-09T04:14:38;5.38;;;3.00;;
28862;SDS011;15994;51.796;13.006;2023-10-09T04:17:13;7.43;;;2.70;;
28862;SDS011;15994;51.796;13.006;2023-10-09T04:19:54;7.05;;;3.05;;
28862;SDS011;15994;51.796;13.006;2023-10-09T04:22:36;5.70;;;2.70;;
28862;SDS011;15994;51.796;13.006;2023-10-09T04:25:05;7.13;;;2.83;;
28862;SDS011;15994;51.796;13.006;2023-10-09T04:27:32;5.45;;;2.45;;
28862;SDS011;15994;51.796;13.006;2023-10-09T04:30:02;5.15;;;2.58;;
28862;SDS011;15994;51.796;13.006;2023-10-09T04:32:32;4.68;;;3.00;;
28862;SDS011;15994;51.796;13.006;2023-10-09T04:35:00;6.28;;;2.67;;
28862;SDS011;15994;51.796;13.006;2023-10-09T04:37:40;4.32;;;2.55;;
28862;SDS011;15994;51.796;13.006;2023-10-09T04:40:09;5.47;;;2.67;;
28862;SDS011;15994;51.796;13.006;2023-10-09T04:42:38;4.60;;;2.67;;
28862;SDS011;15994;51.796;13.006;2023-10-09T04:45:11;6.22;;;2.70;;
28862;SDS011;15994;51.796;13.006;2023-10-09T04:47:50;5.70;;;2.90;;
28862;SDS011;15994;51.796;13.006;2023-10-09T04:50:23;4.10;;;2.58;;
28862;SDS011;15994;51.796;13.006;2023-10-09T04:53:11;5.07;;;2.63;;
28862;SDS011;15994;51.796;13.006;2023-10-09T04:55:47;4.85;;;2.80;;
28862;SDS011;15994;51.796;13.006;2023-10-09T04:58:23;4.72;;;2.75;;
28862;SDS011;15994;51.796;13.006;2023-10-09T05:00:54;7.85;;;3.08;;
28862;SDS011;15994;51.796;13.006;2023-10-09T05:03:29;6.03;;;2.80;;
28862;SDS011;15994;51.796;13.006;2023-10-09T05:06:10;8.02;;;2.95;;
28862;SDS011;15994;51.796;13.006;2023-10-09T05:08:47;5.45;;;3.00;;
28862;SDS011;15994;51.796;13.006;2023-10-09T05:11:14;6.60;;;2.85;;
28862;SDS011;15994;51.796;13.006;2023-10-09T05:13:58;5.63;;;3.33;;
28862;SDS011;15994;51.796;13.006;2023-10-09T05:16:36;7.95;;;3.20;;
28862;SDS011;15994;51.796;13.006;2023-10-09T05:19:02;5.65;;;3.42;;
28862;SDS011;15994;51.796;13.006;2023-10-09T05:21:32;6.03;;;3.42;;
28862;SDS011;15994;51.796;13.006;2023-10-09T05:24:09;6.80;;;3.25;;
28862;SDS011;15994;51.796;13.006;2023-10-09T05:26:48;5.13;;;3.60;;
28862;SDS011;15994;51.796;13.006;2023-10-09T05:29:21;6.68;;;3.65;;
28862;SDS011;15994;51.796;13.006;2023-10-09T05:32:13;9.52;;;4.20;;
28862;SDS011;15994;51.796;13.006;2023-10-09T05:34:52;7.30;;;4.07;;
28862;SDS011;15994;51.796;13.006;2023-10-09T05:37:32;7.45;;;3.30;;
28862;SDS011;15994;51.796;13.006;2023-10-09T05:39:59;6.00;;;3.70;;
28862;SDS011;15994;51.796;13.006;2023-10-09T05:42:47;4.97;;;3.28;;
28862;SDS011;15994;51.796;13.006;2023-10-09T05:45:22;6.07;;;3.53;;
28862;SDS011;15994;51.796;13.006;2023-10-09T05:48:03;7.32;;;3.63;;
28862;SDS011;15994;51.796;13.006;2023-10-09T05:50:50;5.90;;;3.30;;
28862;SDS011;15994;51.796;13.006;2023-10-09T05:53:35;5.72;;;3.47;;
28862;SDS011;15994;51.796;13.006;2023-10-09T05:56:16;6.25;;;3.97;;
28862;SDS011;15994;51.796;13.006;2023-10-09T05:59:09;8.27;;;4.72;;
28862;SDS011;15994;51.796;13.006;2023-10-09T06:01:54;10.38;;;5.47;;
28862;SDS011;15994;51.796;13.006;2023-10-09T06:04:38;6.95;;;3.95;;
28862;SDS011;15994;51.796;13.006;2023-10-09T06:07:19;9.13;;;3.80;;
28862;SDS011;15994;51.796;13.006;2023-10-09T06:09:49;7.75;;;3.83;;
28862;SDS011;15994;51.796;13.006;2023-10-09T06:12:17;7.53;;;3.60;;
28862;SDS011;15994;51.796;13.006;2023-10-09T06:15:14;6.90;;;3.95;;
28862;SDS011;15994;51.796;13.006;2023-10-09T06:17:56;8.63;;;5.50;;
28862;SDS011;15994;51.796;13.006;2023-10-09T06:20:43;7.13;;;4.72;;
28862;SDS011;15994;51.796;13.006;2023-10-09T06:23:24;10.88;;;7.18;;
28862;SDS011;15994;51.796;13.006;2023-10-09T06:26:11;8.60;;;5.53;;
28862;SDS011;15994;51.796;13.006;2023-10-09T06:28:49;7.22;;;4.70;;
28862;SDS011;15994;51.796;13.006;2023-10-09T06:31:37;7.68;;;3.92;;
28862;SDS011;15994;51.796;13.006;2023-10-09T06:34:18;8.90;;;4.15;;
28862;SDS011;15994;51.796;13.006;2023-10-09T06:36:49;6.65;;;4.15;;
28862;SDS011;15994;51.796;13.006;2023-10-09T06:39:18;7.95;;;4.82;;
28862;SDS011;15994;51.796;13.006;2023-10-09T06:42:03;6.82;;;4.63;;
28862;SDS011;15994;51.796;13.006;2023-10-09T06:44:54;6.65;;;4.10;;
28862;SDS011;15994;51.796;13.006;2023-10-09T06:47:22;7.15;;;4.07;;
28862;SDS011;15994;51.796;13.006;2023-10-09T06:49:49;6.70;;;4.10;;
28862;SDS011;15994;51.796;13.006;2023-10-09T06:52:30;8.82;;;4.32;;
28862;SDS011;15994;51.796;13.006;2023-10-09T06:55:11;8.80;;;4.25;;
28862;SDS011;15994;51.796;13.006;2023-10-09T06:57:44;8.20;;;4.20;;
28862;SDS011;15994;51.796;13.006;2023-10-09T07:00:14;6.32;;;4.15;;
28862;SDS011;15994;51.796;13.006;2023-10-09T07:02:58;7.57;;;4.30;;
28862;SDS011;15994;51.796;13.006;2023-10-09T07:05:36;7.18;;;4.10;;
28862;SDS011;15994;51.796;13.006;2023-10-09T07:08:23;6.72;;;4.30;;
28862;SDS011;15994;51.796;13.006;2023-10-09T07:11:01;8.38;;;4.40;;
28862;SDS011;15994;51.796;13.006;2023-10-09T07:13:43;8.07;;;4.50;;
28862;SDS011;15994;51.796;13.006;2023-10-09T07:16:19;7.78;;;4.20;;
28862;SDS011;15994;51.796;13.006;2023-10-09T07:21:20;8.00;;;4.15;;
28862;SDS011;15994;51.796;13.006;2023-10-09T07:23:54;8.00;;;4.10;;
28862;SDS011;15994;51.796;13.006;2023-10-09T07:26:23;7.35;;;4.03;;
28862;SDS011;15994;51.796;13.006;2023-10-09T07:29:02;7.32;;;3.53;;
28862;SDS011;15994;51.796;13.006;2023-10-09T07:31:41;7.00;;;4.43;;
28862;SDS011;15994;51.796;13.006;2023-10-09T07:34:10;7.00;;;4.30;;
28862;SDS011;15994;51.796;13.006;2023-10-09T07:36:55;8.73;;;4.10;;
28862;SDS011;15994;51.796;13.006;2023-10-09T07:39:22;7.40;;;3.70;;
28862;SDS011;15994;51.796;13.006;2023-10-09T07:41:59;7.00;;;4.07;;
28862;SDS011;15994;51.796;13.006;2023-10-09T07:44:41;7.55;;;4.75;;
28862;SDS011;15994;51.796;13.006;2023-10-09T07:47:17;7.15;;;4.85;;
28862;SDS011;15994;51.796;13.006;2023-10-09T07:49:47;8.35;;;5.25;;
28862;SDS011;15994;51.796;13.006;2023-10-09T07:52:18;8.35;;;5.65;;
28862;SDS011;15994;51.796;13.006;2023-10-09T07:54:46;10.23;;;5.50;;
28862;SDS011;15994;51.796;13.006;2023-10-09T07:57:18;7.20;;;4.95;;
28862;SDS011;15994;51.796;13.006;2023-10-09T07:59:50;6.90;;;5.13;;
28862;SDS011;15994;51.796;13.006;2023-10-09T08:02:25;8.27;;;5.35;;
28862;SDS011;15994;51.796;13.006;2023-10-09T08:05:00;7.65;;;5.65;;
28862;SDS011;15994;51.796;13.006;2023-10-09T08:07:31;6.68;;;4.43;;
28862;SDS011;15994;51.796;13.006;2023-10-09T08:10:03;6.38;;;4.57;;
28862;SDS011;15994;51.796;13.006;2023-10-09T08:12:47;7.82;;;3.90;;
28862;SDS011;15994;51.796;13.006;2023-10-09T08:15:24;5.90;;;3.70;;
28862;SDS011;15994;51.796;13.006;2023-10-09T08:17:59;6.65;;;4.30;;
28862;SDS011;15994;51.796;13.006;2023-10-09T08:20:29;5.78;;;4.22;;
28862;SDS011;15994;51.796;13.006;2023-10-09T08:23:15;6.40;;;4.78;;
28862;SDS011;15994;51.796;13.006;2023-10-09T08:25:58;8.35;;;5.50;;
28862;SDS011;15994;51.796;13.006;2023-10-09T08:28:35;6.95;;;5.07;;
28862;SDS011;15994;51.796;13.006;2023-10-09T08:31:07;6.70;;;4.90;;
28862;SDS011;15994;51.796;13.006;2023-10-09T08:33:44;6.18;;;4.00;;
28862;SDS011;15994;51.796;13.006;2023-10-09T08:36:10;5.70;;;4.03;;
28862;SDS011;15994;51.796;13.006;2023-10-09T08:38:40;6.00;;;3.60;;
28862;SDS011;15994;51.796;13.006;2023-10-09T08:41:11;6.72;;;3.47;;
28862;SDS011;15994;51.796;13.006;2023-10-09T08:43:52;4.28;;;3.42;;
28862;SDS011;15994;51.796;13.006;2023-10-09T08:46:19;4.15;;;3.25;;
28862;SDS011;15994;51.796;13.006;2023-10-09T08:48:45;7.90;;;4.40;;
28862;SDS011;15994;51.796;13.006;2023-10-09T08:51:13;6.78;;;3.90;;
28862;SDS011;15994;51.796;13.006;2023-10-09T08:53:41;6.18;;;4.20;;
28862;SDS011;15994;51.796;13.006;2023-10-09T08:56:10;5.68;;;4.18;;
28862;SDS011;15994;51.796;13.006;2023-10-09T08:58:40;6.25;;;4.13;;
28862;SDS011;15994;51.796;13.006;2023-10-09T09:01:07;7.00;;;5.00;;
28862;SDS011;15994;51.796;13.006;2023-10-09T09:03:40;6.72;;;4.97;;
28862;SDS011;15994;51.796;13.006;2023-10-09T09:06:08;6.07;;;4.82;;
28862;SDS011;15994;51.796;13.006;2023-10-09T09:08:36;5.40;;;4.30;;
28862;SDS011;15994;51.796;13.006;2023-10-09T09:11:10;6.10;;;4.68;;
28862;SDS011;15994;51.796;13.006;2023-10-09T09:13:43;4.82;;;3.80;;
28862;SDS011;15994;51.796;13.006;2023-10-09T09:16:14;4.90;;;4.10;;
28862;SDS011;15994;51.796;13.006;2023-10-09T09:21:25;5.38;;;3.25;;
28862;SDS011;15994;51.796;13.006;2023-10-09T09:23:53;4.30;;;3.40;;
28862;SDS011;15994;51.796;13.006;2023-10-09T09:26:32;3.78;;;2.80;;
28862;SDS011;15994;51.796;13.006;2023-10-09T09:29:02;3.50;;;2.80;;
28862;SDS011;15994;51.796;13.006;2023-10-09T09:31:30;4.10;;;2.88;;
28862;SDS011;15994;51.796;13.006;2023-10-09T09:34:02;3.35;;;2.55;;
28862;SDS011;15994;51.796;13.006;2023-10-09T09:36:37;3.78;;;2.60;;
28862;SDS011;15994;51.796;13.006;2023-10-09T09:39:05;3.45;;;2.95;;
28862;SDS011;15994;51.796;13.006;2023-10-09T09:41:44;3.83;;;2.88;;
28862;SDS011;15994;51.796;13.006;2023-10-09T09:44:11;4.75;;;2.90;;
28862;SDS011;15994;51.796;13.006;2023-10-09T09:46:43;3.85;;;2.72;;
28862;SDS011;15994;51.796;13.006;2023-10-09T09:49:10;4.18;;;2.90;;
28862;SDS011;15994;51.796;13.006;2023-10-09T09:51:41;3.53;;;2.67;;
28862;SDS011;15994;51.796;13.006;2023-10-09T09:54:12;4.68;;;2.88;;
28862;SDS011;15994;51.796;13.006;2023-10-09T09:56:40;3.50;;;2.78;;
28862;SDS011;15994;51.796;13.006;2023-10-09T09:59:08;3.60;;;2.90;;
28862;SDS011;15994;51.796;13.006;2023-10-09T10:01:39;3.47;;;2.85;;
28862;SDS011;15994;51.796;13.006;2023-10-09T10:04:14;3.55;;;2.75;;
28862;SDS011;15994;51.796;13.006;2023-10-09T10:06:45;3.10;;;2.63;;
28862;SDS011;15994;51.796;13.006;2023-10-09T10:09:36;3.00;;;2.50;;
28862;SDS011;15994;51.796;13.006;2023-10-09T10:12:06;3.30;;;2.88;;
28862;SDS011;15994;51.796;13.006;2023-10-09T10:14:54;3.33;;;2.65;;
28862;SDS011;15994;51.796;13.006;2023-10-09T10:17:24;3.42;;;2.60;;
28862;SDS011;15994;51.796;13.006;2023-10-09T10:19:59;3.42;;;2.75;;
28862;SDS011;15994;51.796;13.006;2023-10-09T10:22:29;4.32;;;2.95;;
28862;SDS011;15994;51.796;13.006;2023-10-09T10:24:57;3.40;;;2.70;;
28862;SDS011;15994;51.796;13.006;2023-10-09T10:27:29;4.00;;;2.85;;
28862;SDS011;15994;51.796;13.006;2023-10-09T10:32:54;3.30;;;2.85;;
28862;SDS011;15994;51.796;13.006;2023-10-09T10:35:22;4.07;;;2.92;;
28862;SDS011;15994;51.796;13.006;2023-10-09T10:38:01;3.72;;;2.95;;
28862;SDS011;15994;51.796;13.006;2023-10-09T10:40:36;3.60;;;2.80;;
28862;SDS011;15994;51.796;13.006;2023-10-09T10:43:17;3.20;;;2.90;;
28862;SDS011;15994;51.796;13.006;2023-10-09T10:46:07;3.55;;;2.95;;
28862;SDS011;15994;51.796;13.006;2023-10-09T10:48:39;5.05;;;3.10;;
28862;SDS011;15994;51.796;13.006;2023-10-09T10:51:11;4.97;;;3.97;;
28862;SDS011;15994;51.796;13.006;2023-10-09T10:53:50;4.85;;;3.75;;
28862;SDS011;15994;51.796;13.006;2023-10-09T10:56:18;5.72;;;3.78;;
28862;SDS011;15994;51.796;13.006;2023-10-09T10:58:53;4.10;;;3.70;;
28862;SDS011;15994;51.796;13.006;2023-10-09T11:01:37;4.85;;;4.30;;
28862;SDS011;15994;51.796;13.006;2023-10-09T11:04:19;5.60;;;3.92;;
28862;SDS011;15994;51.796;13.006;2023-10-09T11:06:52;3.40;;;3.10;;
28862;SDS011;15994;51.796;13.006;2023-10-09T11:09:25;3.95;;;3.45;;
28862;SDS011;15994;51.796;13.006;2023-10-09T11:12:04;4.53;;;3.30;;
28862;SDS011;15994;51.796;13.006;2023-10-09T11:14:46;3.50;;;2.80;;
28862;SDS011;15994;51.796;13.006;2023-10-09T11:17:31;3.53;;;3.22;;
28862;SDS011;15994;51.796;13.006;2023-10-09T11:20:00;4.63;;;3.00;;
28862;SDS011;15994;51.796;13.006;2023-10-09T11:22:48;5.35;;;3.60;;
28862;SDS011;15994;51.796;13.006;2023-10-09T11:25:41;6.03;;;4.50;;
28862;SDS011;15994;51.796;13.006;2023-10-09T11:28:19;8.20;;;6.32;;
28862;SDS011;15994;51.796;13.006;2023-10-09T11:31:13;11.25;;;10.00;;
28862;SDS011;15994;51.796;13.006;2023-10-09T11:33:47;11.75;;;10.57;;
28862;SDS011;15994;51.796;13.006;2023-10-09T11:36:14;8.57;;;7.72;;
28862;SDS011;15994;51.796;13.006;2023-10-09T11:38:41;6.85;;;6.20;;
28862;SDS011;15994;51.796;13.006;2023-10-09T11:41:13;5.72;;;5.18;;
28862;SDS011;15994;51.796;13.006;2023-10-09T11:43:50;5.38;;;4.70;;
28862;SDS011;15994;51.796;13.006;2023-10-09T11:46:17;5.60;;;5.03;;
28862;SDS011;15994;51.796;13.006;2023-10-09T11:49:06;8.27;;;5.40;;
28862;SDS011;15994;51.796;13.006;2023-10-09T11:52:06;6.13;;;5.38;;
28862;SDS011;15994;51.796;13.006;2023-10-09T11:54:50;6.28;;;5.68;;
28862;SDS011;15994;51.796;13.006;2023-10-09T11:57:23;6.70;;;6.07;;
28862;SDS011;15994;51.796;13.006;2023-10-09T11:59:55;6.95;;;6.25;;
28862;SDS011;15994;51.796;13.006;2023-10-09T12:02:23;6.75;;;6.05;;
28862;SDS011;15994;51.796;13.006;2023-10-09T12:04:50;6.75;;;6.05;;
28862;SDS011;15994;51.796;13.006;2023-10-09T12:07:20;7.25;;;6.35;;
28862;SDS011;15994;51.796;13.006;2023-10-09T12:09:47;7.18;;;6.47;;
28862;SDS011;15994;51.796;13.006;2023-10-09T12:12:16;7.07;;;6.32;;
28862;SDS011;15994;51.796;13.006;2023-10-09T12:14:50;7.53;;;6.80;;
28862;SDS011;15994;51.796;13.006;2023-10-09T12:17:18;8.57;;;7.65;;
28862;SDS011;15994;51.796;13.006;2023-10-09T12:19:49;7.35;;;6.65;;
28862;SDS011;15994;51.796;13.006;2023-10-09T12:22:17;7.63;;;6.82;;
28862;SDS011;15994;51.796;13.006;2023-10-09T12:24:46;7.43;;;6.72;;
28862;SDS011;15994;51.796;13.006;2023-10-09T12:27:13;7.53;;;6.78;;
28862;SDS011;15994;51.796;13.006;2023-10-09T12:29:45;8.05;;;7.20;;
28862;SDS011;15994;51.796;13.006;2023-10-09T12:32:13;8.52;;;7.63;;
28862;SDS011;15994;51.796;13.006;2023-10-09T12:34:44;8.25;;;7.22;;
28862;SDS011;15994;51.796;13.006;2023-10-09T12:37:15;9.30;;;7.70;;
28862;SDS011;15994;51.796;13.006;2023-10-09T12:39:45;8.00;;;7.20;;
28862;SDS011;15994;51.796;13.006;2023-10-09T12:42:12;9.02;;;7.90;;
28862;SDS011;15994;51.796;13.006;2023-10-09T12:44:41;8.50;;;7.60;;
28862;SDS011;15994;51.796;13.006;2023-10-09T12:47:09;9.38;;;7.80;;
28862;SDS011;15994;51.796;13.006;2023-10-09T12:49:37;8.50;;;7.63;;
28862;SDS011;15994;51.796;13.006;2023-10-09T12:52:06;11.23;;;8.25;;
28862;SDS011;15994;51.796;13.006;2023-10-09T12:54:40;10.88;;;7.63;;
28862;SDS011;15994;51.796;13.006;2023-10-09T12:57:07;8.15;;;7.35;;
28862;SDS011;15994;51.796;13.006;2023-10-09T12:59:39;8.23;;;7.35;;
28862;SDS011;15994;51.796;13.006;2023-10-09T13:02:10;9.20;;;8.20;;
28862;SDS011;15994;51.796;13.006;2023-10-09T13:04:37;8.82;;;8.02;;
28862;SDS011;15994;51.796;13.006;2023-10-09T13:07:07;10.38;;;8.68;;
28862;SDS011;15994;51.796;13.006;2023-10-09T13:09:34;9.57;;;8.52;;
28862;SDS011;15994;51.796;13.006;2023-10-09T13:12:07;9.55;;;8.15;;
28862;SDS011;15994;51.796;13.006;2023-10-09T13:14:37;11.13;;;8.40;;
28862;SDS011;15994;51.796;13.006;2023-10-09T13:17:06;9.13;;;8.23;;
28862;SDS011;15994;51.796;13.006;2023-10-09T13:19:35;9.38;;;8.30;;
28862;SDS011;15994;51.796;13.006;2023-10-09T13:22:02;9.30;;;8.38;;
28862;SDS011;15994;51.796;13.006;2023-10-09T13:24:37;9.73;;;7.93;;
28862;SDS011;15994;51.796;13.006;2023-10-09T13:27:04;9.13;;;8.00;;
28862;SDS011;15994;51.796;13.006;2023-10-09T13:29:34;8.48;;;7.57;;
28862;SDS011;15994;51.796;13.006;2023-10-09T13:32:04;9.13;;;8.23;;
28862;SDS011;15994;51.796;13.006;2023-10-09T13:34:38;9.07;;;8.13;;
28862;SDS011;15994;51.796;13.006;2023-10-09T13:37:09;9.30;;;8.40;;
28862;SDS011;15994;51.796;13.006;2023-10-09T13:39:39;8.82;;;7.75;;
28862;SDS011;15994;51.796;13.006;2023-10-09T13:42:17;9.35;;;8.23;;
28862;SDS011;15994;51.796;13.006;2023-10-09T13:44:44;8.55;;;7.75;;
28862;SDS011;15994;51.796;13.006;2023-10-09T13:47:13;9.10;;;8.05;;
28862;SDS011;15994;51.796;13.006;2023-10-09T13:49:46;9.32;;;8.27;;
28862;SDS011;15994;51.796;13.006;2023-10-09T13:52:15;8.90;;;8.00;;
28862;SDS011;15994;51.796;13.006;2023-10-09T13:54:44;8.50;;;7.65;;
28862;SDS011;15994;51.796;13.006;2023-10-09T13:57:14;9.13;;;7.95;;
28862;SDS011;15994;51.796;13.006;2023-10-09T13:59:42;8.20;;;7.40;;
28862;SDS011;15994;51.796;13.006;2023-10-09T14:02:14;8.00;;;7.20;;
28862;SDS011;15994;51.796;13.006;2023-10-09T14:04:46;9.32;;;8.27;;
28862;SDS011;15994;51.796;13.006;2023-10-09T14:07:13;9.98;;;8.40;;
28862;SDS011;15994;51.796;13.006;2023-10-09T14:09:42;8.68;;;7.85;;
28862;SDS011;15994;51.796;13.006;2023-10-09T14:12:20;11.00;;;9.90;;
28862;SDS011;15994;51.796;13.006;2023-10-09T14:14:49;18.60;;;15.38;;
28862;SDS011;15994;51.796;13.006;2023-10-09T14:17:19;12.02;;;10.82;;
28862;SDS011;15994;51.796;13.006;2023-10-09T14:19:48;11.70;;;10.60;;
28862;SDS011;15994;51.796;13.006;2023-10-09T14:22:25;10.55;;;8.93;;
28862;SDS011;15994;51.796;13.006;2023-10-09T14:24:53;9.55;;;8.45;;
28862;SDS011;15994;51.796;13.006;2023-10-09T14:27:22;9.13;;;8.13;;
28862;SDS011;15994;51.796;13.006;2023-10-09T14:29:51;9.52;;;8.32;;
28862;SDS011;15994;51.796;13.006;2023-10-09T14:32:21;10.75;;;8.32;;
28862;SDS011;15994;51.796;13.006;2023-10-09T14:34:53;10.10;;;8.40;;
28862;SDS011;15994;51.796;13.006;2023-10-09T14:37:25;11.15;;;9.45;;
28862;SDS011;15994;51.796;13.006;2023-10-09T14:39:52;9.77;;;8.52;;
28862;SDS011;15994;51.796;13.006;2023-10-09T14:42:20;12.18;;;8.57;;
28862;SDS011;15994;51.796;13.006;2023-10-09T14:44:49;9.70;;;8.70;;
28862;SDS011;15994;51.796;13.006;2023-10-09T14:47:16;9.60;;;8.60;;
28862;SDS011;15994;51.796;13.006;2023-10-09T14:49:46;10.90;;;9.15;;
28862;SDS011;15994;51.796;13.006;2023-10-09T14:52:14;10.77;;;8.80;;
28862;SDS011;15994;51.796;13.006;2023-10-09T14:54:43;11.27;;;10.07;;
28862;SDS011;15994;51.796;13.006;2023-10-09T14:57:11;11.48;;;10.18;;
28862;SDS011;15994;51.796;13.006;2023-10-09T14:59:38;12.32;;;10.10;;
28862;SDS011;15994;51.796;13.006;2023-10-09T15:02:07;17.17;;;14.68;;
28862;SDS011;15994;51.796;13.006;2023-10-09T15:04:34;53.92;;;45.20;;
28862;SDS011;15994;51.796;13.006;2023-10-09T15:07:05;60.75;;;45.97;;
28862;SDS011;15994;51.796;13.006;2023-10-09T15:09:33;48.65;;;37.50;;
28862;SDS011;15994;51.796;13.006;2023-10-09T15:12:01;59.60;;;43.58;;
28862;SDS011;15994;51.796;13.006;2023-10-09T15:14:30;67.35;;;51.83;;